sensor_id;sensor_type;location;lat;lon;timestamp;temperature;humidity
12049;DHT22;6085;49.452;8.502;2023-09-18T00:03:38;22.60;99.90
12049;DHT22;6085;49.452;8.502;2023-09-18T00:07:40;22.50;99.90
12049;DHT22;6085;49.452;8.502;2023-09-18T00:11:44;22.40;99.90
12049;DHT22;6085;49.452;8.502;2023-09-18T00:15:46;22.30;99.90
12049;DHT22;6085;49.452;8.502;2023-09-18T00:19:49;22.20;99.90
12049;DHT22;6085;49.452;8.502;2023-09-18T00:23:52;22.10;99.90
12049;DHT22;6085;49.452;8.502;2023-09-18T00:27:55;22.10;99.90
12049;DHT22;6085;49.452;8.502;2023-09-18T00:31:57;22.10;99.90
12049;DHT22;6085;49.452;8.502;2023-09-18T00:35:59;22.10;99.90
12049;DHT22;6085;49.452;8.502;2023-09-18T00:40:01;22.20;99.90
12049;DHT22;6085;49.452;8.502;2023-09-18T00:44:07;22.30;99.90
12049;DHT22;6085;49.452;8.502;2023-09-18T00:48:09;22.20;99.90
12049;DHT22;6085;49.452;8.502;2023-09-18T00:52:11;22.20;99.90
12049;DHT22;6085;49.452;8.502;2023-09-18T00:56:13;22.10;99.90
12049;DHT22;6085;49.452;8.502;2023-09-18T01:00:17;22.00;99.90
12049;DHT22;6085;49.452;8.502;2023-09-18T01:04:19;22.00;99.90
12049;DHT22;6085;49.452;8.502;2023-09-18T01:08:21;22.00;99.90
12049;DHT22;6085;49.452;8.502;2023-09-18T01:12:29;22.00;99.90
12049;DHT22;6085;49.452;8.502;2023-09-18T01:16:41;22.10;99.90
12049;DHT22;6085;49.452;8.502;2023-09-18T01:20:46;22.20;99.90
12049;DHT22;6085;49.452;8.502;2023-09-18T01:24:49;22.30;99.90
12049;DHT22;6085;49.452;8.502;2023-09-18T01:28:51;22.40;99.90
12049;DHT22;6085;49.452;8.502;2023-09-18T01:32:54;22.50;99.90
12049;DHT22;6085;49.452;8.502;2023-09-18T01:36:58;22.50;99.90
12049;DHT22;6085;49.452;8.502;2023-09-18T01:41:01;22.50;99.90
12049;DHT22;6085;49.452;8.502;2023-09-18T01:45:04;22.60;99.90
12049;DHT22;6085;49.452;8.502;2023-09-18T01:49:07;22.70;99.90
12049;DHT22;6085;49.452;8.502;2023-09-18T01:53:09;22.70;99.90
12049;DHT22;6085;49.452;8.502;2023-09-18T01:57:13;22.50;99.90
12049;DHT22;6085;49.452;8.502;2023-09-18T02:01:15;22.30;99.90
12049;DHT22;6085;49.452;8.502;2023-09-18T02:05:17;21.80;99.90
12049;DHT22;6085;49.452;8.502;2023-09-18T02:09:19;20.90;99.90
12049;DHT22;6085;49.452;8.502;2023-09-18T02:13:22;20.20;99.90
12049;DHT22;6085;49.452;8.502;2023-09-18T02:17:24;19.70;99.90
12049;DHT22;6085;49.452;8.502;2023-09-18T02:21:26;19.40;99.90
12049;DHT22;6085;49.452;8.502;2023-09-18T02:25:28;19.20;99.90
12049;DHT22;6085;49.452;8.502;2023-09-18T02:29:31;19.20;99.90
12049;DHT22;6085;49.452;8.502;2023-09-18T02:33:33;19.10;99.90
12049;DHT22;6085;49.452;8.502;2023-09-18T02:37:35;19.00;99.90
12049;DHT22;6085;49.452;8.502;2023-09-18T02:41:37;19.00;99.90
12049;DHT22;6085;49.452;8.502;2023-09-18T02:45:41;18.90;99.90
12049;DHT22;6085;49.452;8.502;2023-09-18T02:49:43;19.00;99.90
12049;DHT22;6085;49.452;8.502;2023-09-18T02:53:45;19.00;99.90
12049;DHT22;6085;49.452;8.502;2023-09-18T02:57:47;19.00;99.90
12049;DHT22;6085;49.452;8.502;2023-09-18T03:01:50;19.10;99.90
12049;DHT22;6085;49.452;8.502;2023-09-18T03:05:52;19.20;99.90
12049;DHT22;6085;49.452;8.502;2023-09-18T03:09:54;19.30;99.90
12049;DHT22;6085;49.452;8.502;2023-09-18T03:13:56;19.20;99.90
12049;DHT22;6085;49.452;8.502;2023-09-18T03:18:00;19.30;99.90
12049;DHT22;6085;49.452;8.502;2023-09-18T03:22:02;19.30;99.90
12049;DHT22;6085;49.452;8.502;2023-09-18T03:26:04;19.30;99.90
12049;DHT22;6085;49.452;8.502;2023-09-18T03:30:07;19.30;99.90
12049;DHT22;6085;49.452;8.502;2023-09-18T03:34:11;19.30;99.90
12049;DHT22;6085;49.452;8.502;2023-09-18T03:38:13;19.40;99.90
12049;DHT22;6085;49.452;8.502;2023-09-18T03:42:15;19.50;99.90
12049;DHT22;6085;49.452;8.502;2023-09-18T03:46:17;19.60;99.90
12049;DHT22;6085;49.452;8.502;2023-09-18T03:50:20;19.70;99.90
12049;DHT22;6085;49.452;8.502;2023-09-18T03:54:22;19.90;99.90
12049;DHT22;6085;49.452;8.502;2023-09-18T03:58:24;20.20;99.90
12049;DHT22;6085;49.452;8.502;2023-09-18T04:02:26;20.50;99.90
12049;DHT22;6085;49.452;8.502;2023-09-18T04:06:36;20.60;99.90
12049;DHT22;6085;49.452;8.502;2023-09-18T04:10:38;20.60;99.90
12049;DHT22;6085;49.452;8.502;2023-09-18T04:14:40;20.50;99.90
12049;DHT22;6085;49.452;8.502;2023-09-18T04:18:42;20.20;99.90
12049;DHT22;6085;49.452;8.502;2023-09-18T04:22:47;20.00;99.90
12049;DHT22;6085;49.452;8.502;2023-09-18T04:26:50;19.90;99.90
12049;DHT22;6085;49.452;8.502;2023-09-18T04:30:52;19.80;99.90
12049;DHT22;6085;49.452;8.502;2023-09-18T04:34:54;19.70;99.90
12049;DHT22;6085;49.452;8.502;2023-09-18T04:38:58;19.50;99.90
12049;DHT22;6085;49.452;8.502;2023-09-18T04:43:00;19.40;99.90
12049;DHT22;6085;49.452;8.502;2023-09-18T04:47:02;19.30;99.90
12049;DHT22;6085;49.452;8.502;2023-09-18T04:51:04;19.20;99.90
12049;DHT22;6085;49.452;8.502;2023-09-18T04:55:08;19.20;99.90
12049;DHT22;6085;49.452;8.502;2023-09-18T04:59:10;19.20;99.90
12049;DHT22;6085;49.452;8.502;2023-09-18T05:03:12;19.10;99.90
12049;DHT22;6085;49.452;8.502;2023-09-18T05:07:14;19.10;99.90
12049;DHT22;6085;49.452;8.502;2023-09-18T05:11:17;19.10;99.90
12049;DHT22;6085;49.452;8.502;2023-09-18T05:15:20;19.10;99.90
12049;DHT22;6085;49.452;8.502;2023-09-18T05:19:22;19.00;99.90
12049;DHT22;6085;49.452;8.502;2023-09-18T05:23:24;19.00;99.90
12049;DHT22;6085;49.452;8.502;2023-09-18T05:27:27;19.00;99.90
12049;DHT22;6085;49.452;8.502;2023-09-18T05:31:29;19.10;99.90
12049;DHT22;6085;49.452;8.502;2023-09-18T05:35:31;19.10;99.90
12049;DHT22;6085;49.452;8.502;2023-09-18T05:39:33;19.10;99.90
12049;DHT22;6085;49.452;8.502;2023-09-18T05:43:36;19.10;99.90
12049;DHT22;6085;49.452;8.502;2023-09-18T05:47:40;19.00;99.90
12049;DHT22;6085;49.452;8.502;2023-09-18T05:51:43;19.10;99.90
12049;DHT22;6085;49.452;8.502;2023-09-18T05:55:44;19.10;99.90
12049;DHT22;6085;49.452;8.502;2023-09-18T05:59:48;19.10;99.90
12049;DHT22;6085;49.452;8.502;2023-09-18T06:03:50;19.10;99.90
12049;DHT22;6085;49.452;8.502;2023-09-18T06:07:52;19.10;99.90
12049;DHT22;6085;49.452;8.502;2023-09-18T06:11:54;19.20;99.90
12049;DHT22;6085;49.452;8.502;2023-09-18T06:15:57;19.20;99.90
12049;DHT22;6085;49.452;8.502;2023-09-18T06:19:59;19.10;99.90
12049;DHT22;6085;49.452;8.502;2023-09-18T06:24:01;19.20;99.90
12049;DHT22;6085;49.452;8.502;2023-09-18T06:28:03;19.20;99.90
12049;DHT22;6085;49.452;8.502;2023-09-18T06:32:07;19.30;99.90
12049;DHT22;6085;49.452;8.502;2023-09-18T06:36:09;19.40;99.90
12049;DHT22;6085;49.452;8.502;2023-09-18T06:40:11;19.50;99.90
12049;DHT22;6085;49.452;8.502;2023-09-18T06:44:13;19.60;99.90
12049;DHT22;6085;49.452;8.502;2023-09-18T06:48:16;19.80;99.90
12049;DHT22;6085;49.452;8.502;2023-09-18T06:52:18;19.80;99.90
12049;DHT22;6085;49.452;8.502;2023-09-18T06:56:20;19.90;99.90
12049;DHT22;6085;49.452;8.502;2023-09-18T07:00:23;19.90;99.90
12049;DHT22;6085;49.452;8.502;2023-09-18T07:04:27;19.90;99.90
12049;DHT22;6085;49.452;8.502;2023-09-18T07:08:29;20.00;99.90
12049;DHT22;6085;49.452;8.502;2023-09-18T07:12:33;20.10;99.90
12049;DHT22;6085;49.452;8.502;2023-09-18T07:16:35;20.20;99.90
12049;DHT22;6085;49.452;8.502;2023-09-18T07:20:38;20.30;99.90
12049;DHT22;6085;49.452;8.502;2023-09-18T07:24:40;20.40;99.90
12049;DHT22;6085;49.452;8.502;2023-09-18T07:28:43;20.60;99.90
12049;DHT22;6085;49.452;8.502;2023-09-18T07:32:46;20.80;99.90
12049;DHT22;6085;49.452;8.502;2023-09-18T07:36:49;20.90;99.90
12049;DHT22;6085;49.452;8.502;2023-09-18T07:40:55;20.80;99.90
12049;DHT22;6085;49.452;8.502;2023-09-18T07:44:57;20.80;99.90
12049;DHT22;6085;49.452;8.502;2023-09-18T07:48:59;20.60;99.90
12049;DHT22;6085;49.452;8.502;2023-09-18T07:53:03;20.60;99.90
12049;DHT22;6085;49.452;8.502;2023-09-18T07:57:05;20.50;99.90
12049;DHT22;6085;49.452;8.502;2023-09-18T08:01:09;20.50;99.90
12049;DHT22;6085;49.452;8.502;2023-09-18T08:05:12;20.50;99.90
12049;DHT22;6085;49.452;8.502;2023-09-18T08:09:15;20.50;99.90
12049;DHT22;6085;49.452;8.502;2023-09-18T08:13:17;20.50;99.90
12049;DHT22;6085;49.452;8.502;2023-09-18T08:17:20;20.50;99.90
12049;DHT22;6085;49.452;8.502;2023-09-18T08:21:22;20.50;99.90
12049;DHT22;6085;49.452;8.502;2023-09-18T08:25:26;20.50;99.90
12049;DHT22;6085;49.452;8.502;2023-09-18T08:29:28;20.50;99.90
12049;DHT22;6085;49.452;8.502;2023-09-18T08:33:30;20.50;99.90
12049;DHT22;6085;49.452;8.502;2023-09-18T08:37:32;20.50;99.90
12049;DHT22;6085;49.452;8.502;2023-09-18T08:41:38;20.50;99.90
12049;DHT22;6085;49.452;8.502;2023-09-18T08:45:47;20.50;99.90
12049;DHT22;6085;49.452;8.502;2023-09-18T08:49:51;20.50;99.90
12049;DHT22;6085;49.452;8.502;2023-09-18T08:53:55;20.50;99.90
12049;DHT22;6085;49.452;8.502;2023-09-18T08:57:59;20.60;99.90
12049;DHT22;6085;49.452;8.502;2023-09-18T09:02:02;20.70;99.90
12049;DHT22;6085;49.452;8.502;2023-09-18T09:06:05;20.70;99.90
12049;DHT22;6085;49.452;8.502;2023-09-18T09:10:07;20.90;99.90
12049;DHT22;6085;49.452;8.502;2023-09-18T09:14:12;21.00;99.90
12049;DHT22;6085;49.452;8.502;2023-09-18T09:18:18;21.20;99.90
12049;DHT22;6085;49.452;8.502;2023-09-18T09:22:20;21.30;99.90
12049;DHT22;6085;49.452;8.502;2023-09-18T09:26:23;21.20;99.90
12049;DHT22;6085;49.452;8.502;2023-09-18T09:30:28;21.10;99.90
12049;DHT22;6085;49.452;8.502;2023-09-18T09:34:32;21.10;99.90
12049;DHT22;6085;49.452;8.502;2023-09-18T09:38:37;21.00;99.90
12049;DHT22;6085;49.452;8.502;2023-09-18T09:42:40;20.80;99.90
12049;DHT22;6085;49.452;8.502;2023-09-18T09:46:47;20.90;99.90
12049;DHT22;6085;49.452;8.502;2023-09-18T09:50:49;21.00;99.90
12049;DHT22;6085;49.452;8.502;2023-09-18T09:54:52;21.10;99.90
12049;DHT22;6085;49.452;8.502;2023-09-18T09:59:00;21.10;99.90
12049;DHT22;6085;49.452;8.502;2023-09-18T10:03:06;21.20;99.90
12049;DHT22;6085;49.452;8.502;2023-09-18T10:07:09;21.30;99.90
12049;DHT22;6085;49.452;8.502;2023-09-18T10:11:13;21.50;99.90
12049;DHT22;6085;49.452;8.502;2023-09-18T10:15:18;21.80;99.90
12049;DHT22;6085;49.452;8.502;2023-09-18T10:19:27;22.10;99.90
12049;DHT22;6085;49.452;8.502;2023-09-18T10:23:38;22.10;99.90
12049;DHT22;6085;49.452;8.502;2023-09-18T10:27:42;22.20;99.90
12049;DHT22;6085;49.452;8.502;2023-09-18T10:31:45;22.30;99.90
12049;DHT22;6085;49.452;8.502;2023-09-18T10:35:51;22.40;99.90
12049;DHT22;6085;49.452;8.502;2023-09-18T10:39:55;22.60;99.90
12049;DHT22;6085;49.452;8.502;2023-09-18T10:44:10;22.80;99.90
12049;DHT22;6085;49.452;8.502;2023-09-18T10:48:13;22.80;99.90
12049;DHT22;6085;49.452;8.502;2023-09-18T10:52:17;23.30;99.90
12049;DHT22;6085;49.452;8.502;2023-09-18T10:56:19;24.00;99.90
12049;DHT22;6085;49.452;8.502;2023-09-18T11:00:24;24.10;99.90
12049;DHT22;6085;49.452;8.502;2023-09-18T11:04:30;24.10;99.90
12049;DHT22;6085;49.452;8.502;2023-09-18T11:08:58;24.40;99.90
12049;DHT22;6085;49.452;8.502;2023-09-18T11:13:05;24.40;99.90
12049;DHT22;6085;49.452;8.502;2023-09-18T11:17:28;24.20;99.90
12049;DHT22;6085;49.452;8.502;2023-09-18T11:21:32;23.80;99.90
12049;DHT22;6085;49.452;8.502;2023-09-18T11:25:39;23.60;99.90
12049;DHT22;6085;49.452;8.502;2023-09-18T11:29:42;23.90;99.90
12049;DHT22;6085;49.452;8.502;2023-09-18T11:33:47;23.60;99.90
12049;DHT22;6085;49.452;8.502;2023-09-18T11:38:03;24.10;99.90
12049;DHT22;6085;49.452;8.502;2023-09-18T11:42:09;24.60;99.90
12049;DHT22;6085;49.452;8.502;2023-09-18T11:46:12;24.50;99.90
12049;DHT22;6085;49.452;8.502;2023-09-18T11:50:19;24.30;99.90
12049;DHT22;6085;49.452;8.502;2023-09-18T11:54:22;24.70;99.90
12049;DHT22;6085;49.452;8.502;2023-09-18T11:58:26;24.80;99.90
12049;DHT22;6085;49.452;8.502;2023-09-18T12:02:29;24.70;99.90
12049;DHT22;6085;49.452;8.502;2023-09-18T12:06:36;24.70;99.90
12049;DHT22;6085;49.452;8.502;2023-09-18T12:10:38;24.70;99.90
12049;DHT22;6085;49.452;8.502;2023-09-18T12:14:41;24.80;99.90
12049;DHT22;6085;49.452;8.502;2023-09-18T12:18:48;24.70;99.90
12049;DHT22;6085;49.452;8.502;2023-09-18T12:22:50;24.60;99.90
12049;DHT22;6085;49.452;8.502;2023-09-18T12:26:53;24.60;99.90
12049;DHT22;6085;49.452;8.502;2023-09-18T12:30:57;24.80;99.90
12049;DHT22;6085;49.452;8.502;2023-09-18T12:35:00;25.00;99.90
12049;DHT22;6085;49.452;8.502;2023-09-18T12:39:02;24.90;99.90
12049;DHT22;6085;49.452;8.502;2023-09-18T12:43:04;24.70;99.90
12049;DHT22;6085;49.452;8.502;2023-09-18T12:47:08;24.30;99.90
12049;DHT22;6085;49.452;8.502;2023-09-18T12:51:10;24.10;99.90
12049;DHT22;6085;49.452;8.502;2023-09-18T12:55:23;24.30;99.90
12049;DHT22;6085;49.452;8.502;2023-09-18T12:59:31;24.30;99.90
12049;DHT22;6085;49.452;8.502;2023-09-18T13:03:41;24.70;99.90
12049;DHT22;6085;49.452;8.502;2023-09-18T13:07:44;25.10;99.90
12049;DHT22;6085;49.452;8.502;2023-09-18T13:11:53;25.40;99.90
12049;DHT22;6085;49.452;8.502;2023-09-18T13:15:57;25.60;99.90
12049;DHT22;6085;49.452;8.502;2023-09-18T13:20:08;25.30;99.90
12049;DHT22;6085;49.452;8.502;2023-09-18T13:24:25;25.10;99.90
12049;DHT22;6085;49.452;8.502;2023-09-18T13:28:27;25.20;99.90
12049;DHT22;6085;49.452;8.502;2023-09-18T13:32:31;25.20;99.90
12049;DHT22;6085;49.452;8.502;2023-09-18T13:36:35;25.10;99.90
12049;DHT22;6085;49.452;8.502;2023-09-18T13:40:39;25.20;99.90
12049;DHT22;6085;49.452;8.502;2023-09-18T13:44:44;25.50;99.90
12049;DHT22;6085;49.452;8.502;2023-09-18T13:48:47;25.40;99.90
12049;DHT22;6085;49.452;8.502;2023-09-18T13:52:50;25.30;99.90
12049;DHT22;6085;49.452;8.502;2023-09-18T13:56:53;25.30;99.90
12049;DHT22;6085;49.452;8.502;2023-09-18T14:00:56;25.50;99.90
12049;DHT22;6085;49.452;8.502;2023-09-18T14:04:59;25.50;99.90
12049;DHT22;6085;49.452;8.502;2023-09-18T14:09:02;25.30;99.90
12049;DHT22;6085;49.452;8.502;2023-09-18T14:13:06;25.10;99.90
12049;DHT22;6085;49.452;8.502;2023-09-18T14:17:08;25.40;99.90
12049;DHT22;6085;49.452;8.502;2023-09-18T14:21:10;25.60;99.90
12049;DHT22;6085;49.452;8.502;2023-09-18T14:25:14;25.50;99.90
12049;DHT22;6085;49.452;8.502;2023-09-18T14:29:16;25.30;99.90
12049;DHT22;6085;49.452;8.502;2023-09-18T14:33:18;25.20;99.90
12049;DHT22;6085;49.452;8.502;2023-09-18T14:37:20;25.00;99.90
12049;DHT22;6085;49.452;8.502;2023-09-18T14:41:23;24.90;99.90
12049;DHT22;6085;49.452;8.502;2023-09-18T14:45:26;25.00;99.90
12049;DHT22;6085;49.452;8.502;2023-09-18T14:49:29;25.00;99.90
12049;DHT22;6085;49.452;8.502;2023-09-18T14:53:31;25.00;99.90
12049;DHT22;6085;49.452;8.502;2023-09-18T14:57:34;24.90;99.90
12049;DHT22;6085;49.452;8.502;2023-09-18T15:01:36;25.00;99.90
12049;DHT22;6085;49.452;8.502;2023-09-18T15:05:38;25.00;99.90
12049;DHT22;6085;49.452;8.502;2023-09-18T15:09:40;24.90;99.90
12049;DHT22;6085;49.452;8.502;2023-09-18T15:13:44;24.90;99.90
12049;DHT22;6085;49.452;8.502;2023-09-18T15:17:46;25.00;99.90
12049;DHT22;6085;49.452;8.502;2023-09-18T15:21:48;25.10;99.90
12049;DHT22;6085;49.452;8.502;2023-09-18T15:25:51;25.20;99.90
12049;DHT22;6085;49.452;8.502;2023-09-18T15:29:55;25.20;99.90
12049;DHT22;6085;49.452;8.502;2023-09-18T15:33:57;25.10;99.90
12049;DHT22;6085;49.452;8.502;2023-09-18T15:37:59;24.90;99.90
12049;DHT22;6085;49.452;8.502;2023-09-18T15:42:01;24.70;99.90
12049;DHT22;6085;49.452;8.502;2023-09-18T15:46:05;24.70;99.90
12049;DHT22;6085;49.452;8.502;2023-09-18T15:50:07;24.50;99.90
12049;DHT22;6085;49.452;8.502;2023-09-18T15:54:09;24.20;99.90
12049;DHT22;6085;49.452;8.502;2023-09-18T15:58:11;24.10;99.90
12049;DHT22;6085;49.452;8.502;2023-09-18T16:02:16;23.90;99.90
12049;DHT22;6085;49.452;8.502;2023-09-18T16:06:18;23.70;99.90
12049;DHT22;6085;49.452;8.502;2023-09-18T16:10:21;23.70;99.90
12049;DHT22;6085;49.452;8.502;2023-09-18T16:14:23;23.50;99.90
12049;DHT22;6085;49.452;8.502;2023-09-18T16:18:26;23.50;99.90
12049;DHT22;6085;49.452;8.502;2023-09-18T16:22:28;23.40;99.90
12049;DHT22;6085;49.452;8.502;2023-09-18T16:26:30;23.40;99.90
12049;DHT22;6085;49.452;8.502;2023-09-18T16:30:32;23.40;99.90
12049;DHT22;6085;49.452;8.502;2023-09-18T16:34:39;23.30;99.90
12049;DHT22;6085;49.452;8.502;2023-09-18T16:38:43;23.30;99.90
12049;DHT22;6085;49.452;8.502;2023-09-18T16:42:45;23.20;99.90
12049;DHT22;6085;49.452;8.502;2023-09-18T16:46:47;23.10;99.90
12049;DHT22;6085;49.452;8.502;2023-09-18T16:50:51;23.00;99.90
12049;DHT22;6085;49.452;8.502;2023-09-18T16:54:53;22.90;99.90
12049;DHT22;6085;49.452;8.502;2023-09-18T16:58:57;22.90;99.90
12049;DHT22;6085;49.452;8.502;2023-09-18T17:03:03;22.80;99.90
12049;DHT22;6085;49.452;8.502;2023-09-18T17:07:06;22.70;99.90
12049;DHT22;6085;49.452;8.502;2023-09-18T17:11:10;22.60;99.90
12049;DHT22;6085;49.452;8.502;2023-09-18T17:15:14;22.60;99.90
12049;DHT22;6085;49.452;8.502;2023-09-18T17:19:17;22.50;99.90
12049;DHT22;6085;49.452;8.502;2023-09-18T17:23:21;22.40;99.90
12049;DHT22;6085;49.452;8.502;2023-09-18T17:27:24;22.40;99.90
12049;DHT22;6085;49.452;8.502;2023-09-18T17:31:26;22.40;99.90
12049;DHT22;6085;49.452;8.502;2023-09-18T17:35:28;22.40;99.90
12049;DHT22;6085;49.452;8.502;2023-09-18T17:39:32;22.10;99.90
12049;DHT22;6085;49.452;8.502;2023-09-18T17:43:34;21.40;99.90
12049;DHT22;6085;49.452;8.502;2023-09-18T17:47:36;20.00;99.90
12049;DHT22;6085;49.452;8.502;2023-09-18T17:51:39;19.10;99.90
12049;DHT22;6085;49.452;8.502;2023-09-18T17:55:42;18.60;99.90
12049;DHT22;6085;49.452;8.502;2023-09-18T17:59:45;18.30;99.90
12049;DHT22;6085;49.452;8.502;2023-09-18T18:03:47;18.00;99.90
12049;DHT22;6085;49.452;8.502;2023-09-18T18:07:51;17.80;99.90
12049;DHT22;6085;49.452;8.502;2023-09-18T18:11:54;17.60;99.90
12049;DHT22;6085;49.452;8.502;2023-09-18T18:15:56;17.50;99.90
12049;DHT22;6085;49.452;8.502;2023-09-18T18:19:59;17.30;99.90
12049;DHT22;6085;49.452;8.502;2023-09-18T18:24:02;17.20;99.90
12049;DHT22;6085;49.452;8.502;2023-09-18T18:28:06;17.10;99.90
12049;DHT22;6085;49.452;8.502;2023-09-18T18:32:09;17.10;99.90
12049;DHT22;6085;49.452;8.502;2023-09-18T18:36:12;17.00;99.90
12049;DHT22;6085;49.452;8.502;2023-09-18T18:40:14;16.90;99.90
12049;DHT22;6085;49.452;8.502;2023-09-18T18:44:18;16.80;99.90
12049;DHT22;6085;49.452;8.502;2023-09-18T18:48:27;16.70;99.90
12049;DHT22;6085;49.452;8.502;2023-09-18T18:52:29;16.70;99.90
12049;DHT22;6085;49.452;8.502;2023-09-18T18:56:31;16.70;99.90
12049;DHT22;6085;49.452;8.502;2023-09-18T19:00:35;16.70;99.90
12049;DHT22;6085;49.452;8.502;2023-09-18T19:04:37;16.70;99.90
12049;DHT22;6085;49.452;8.502;2023-09-18T19:08:39;16.60;99.90
12049;DHT22;6085;49.452;8.502;2023-09-18T19:12:45;16.50;99.90
12049;DHT22;6085;49.452;8.502;2023-09-18T19:16:49;16.40;99.90
12049;DHT22;6085;49.452;8.502;2023-09-18T19:20:51;16.30;99.90
12049;DHT22;6085;49.452;8.502;2023-09-18T19:24:54;16.40;99.90
12049;DHT22;6085;49.452;8.502;2023-09-18T19:28:57;16.40;99.90
12049;DHT22;6085;49.452;8.502;2023-09-18T19:33:01;16.40;99.90
12049;DHT22;6085;49.452;8.502;2023-09-18T19:37:04;16.40;99.90
12049;DHT22;6085;49.452;8.502;2023-09-18T19:41:06;16.40;99.90
12049;DHT22;6085;49.452;8.502;2023-09-18T19:45:09;16.40;99.90
12049;DHT22;6085;49.452;8.502;2023-09-18T19:49:12;16.40;99.90
12049;DHT22;6085;49.452;8.502;2023-09-18T19:53:14;16.40;99.90
12049;DHT22;6085;49.452;8.502;2023-09-18T19:57:16;16.50;99.90
12049;DHT22;6085;49.452;8.502;2023-09-18T20:01:18;16.60;99.90
12049;DHT22;6085;49.452;8.502;2023-09-18T20:05:22;16.50;99.90
12049;DHT22;6085;49.452;8.502;2023-09-18T20:09:24;16.50;99.90
12049;DHT22;6085;49.452;8.502;2023-09-18T20:13:27;16.60;99.90
12049;DHT22;6085;49.452;8.502;2023-09-18T20:17:30;16.50;99.90
12049;DHT22;6085;49.452;8.502;2023-09-18T20:21:33;16.50;99.90
12049;DHT22;6085;49.452;8.502;2023-09-18T20:25:35;16.50;99.90
12049;DHT22;6085;49.452;8.502;2023-09-18T20:29:37;16.50;99.90
12049;DHT22;6085;49.452;8.502;2023-09-18T20:33:39;16.60;99.90
12049;DHT22;6085;49.452;8.502;2023-09-18T20:37:43;16.60;99.90
12049;DHT22;6085;49.452;8.502;2023-09-18T20:41:45;16.60;99.90
12049;DHT22;6085;49.452;8.502;2023-09-18T20:45:47;16.60;99.90
12049;DHT22;6085;49.452;8.502;2023-09-18T20:49:52;16.60;99.90
12049;DHT22;6085;49.452;8.502;2023-09-18T20:53:56;16.60;99.90
12049;DHT22;6085;49.452;8.502;2023-09-18T20:58:00;16.60;99.90
12049;DHT22;6085;49.452;8.502;2023-09-18T21:02:01;16.60;99.90
12049;DHT22;6085;49.452;8.502;2023-09-18T21:06:04;16.60;99.90
12049;DHT22;6085;49.452;8.502;2023-09-18T21:10:08;16.60;99.90
12049;DHT22;6085;49.452;8.502;2023-09-18T21:14:11;16.60;99.90
12049;DHT22;6085;49.452;8.502;2023-09-18T21:18:12;16.60;99.90
12049;DHT22;6085;49.452;8.502;2023-09-18T21:22:14;16.70;99.90
12049;DHT22;6085;49.452;8.502;2023-09-18T21:26:18;16.70;99.90
12049;DHT22;6085;49.452;8.502;2023-09-18T21:30:20;16.70;99.90
12049;DHT22;6085;49.452;8.502;2023-09-18T21:34:22;16.60;99.90
12049;DHT22;6085;49.452;8.502;2023-09-18T21:38:24;16.60;99.90
12049;DHT22;6085;49.452;8.502;2023-09-18T21:42:27;16.60;99.90
12049;DHT22;6085;49.452;8.502;2023-09-18T21:46:29;16.60;99.90
12049;DHT22;6085;49.452;8.502;2023-09-18T21:50:32;16.60;99.90
12049;DHT22;6085;49.452;8.502;2023-09-18T21:54:36;16.60;99.90
12049;DHT22;6085;49.452;8.502;2023-09-18T21:58:40;16.50;99.90
12049;DHT22;6085;49.452;8.502;2023-09-18T22:02:41;16.50;99.90
12049;DHT22;6085;49.452;8.502;2023-09-18T22:06:43;16.40;99.90
12049;DHT22;6085;49.452;8.502;2023-09-18T22:10:46;16.30;99.90
12049;DHT22;6085;49.452;8.502;2023-09-18T22:14:50;16.30;99.90
12049;DHT22;6085;49.452;8.502;2023-09-18T22:18:53;16.30;99.90
12049;DHT22;6085;49.452;8.502;2023-09-18T22:22:55;16.20;99.90
12049;DHT22;6085;49.452;8.502;2023-09-18T22:27:03;16.20;99.90
12049;DHT22;6085;49.452;8.502;2023-09-18T22:31:08;16.20;99.90
12049;DHT22;6085;49.452;8.502;2023-09-18T22:35:14;16.30;99.90
12049;DHT22;6085;49.452;8.502;2023-09-18T22:57:03;16.40;99.90
12049;DHT22;6085;49.452;8.502;2023-09-18T23:01:05;16.50;99.90
12049;DHT22;6085;49.452;8.502;2023-09-18T23:05:07;16.60;99.90
12049;DHT22;6085;49.452;8.502;2023-09-18T23:09:09;16.70;99.90
12049;DHT22;6085;49.452;8.502;2023-09-18T23:13:15;16.80;99.90
12049;DHT22;6085;49.452;8.502;2023-09-18T23:17:17;16.80;99.90
12049;DHT22;6085;49.452;8.502;2023-09-18T23:21:21;16.80;99.90
12049;DHT22;6085;49.452;8.502;2023-09-18T23:25:23;16.90;99.90
12049;DHT22;6085;49.452;8.502;2023-09-18T23:29:28;16.90;99.90
12049;DHT22;6085;49.452;8.502;2023-09-18T23:33:31;16.80;99.90
12049;DHT22;6085;49.452;8.502;2023-09-18T23:37:34;16.80;99.90
12049;DHT22;6085;49.452;8.502;2023-09-18T23:41:36;16.70;99.90
12049;DHT22;6085;49.452;8.502;2023-09-18T23:45:41;16.60;99.90
12049;DHT22;6085;49.452;8.502;2023-09-18T23:49:43;16.50;99.90
12049;DHT22;6085;49.452;8.502;2023-09-18T23:53:46;16.40;99.90
12049;DHT22;6085;49.452;8.502;2023-09-18T23:57:50;16.40;99.90
